sensor_id;sensor_type;location;lat;lon;timestamp;pressure;altitude;pressure_sealevel;temperature;humidity
47883;BME280;37739;50.350;7.578;2023-04-25T00:01:25;99127.50;;;8.89;82.41
47883;BME280;37739;50.350;7.578;2023-04-25T00:03:51;99130.16;;;8.92;82.17
47883;BME280;37739;50.350;7.578;2023-04-25T00:06:22;99144.91;;;8.99;82.04
47883;BME280;37739;50.350;7.578;2023-04-25T00:08:51;99138.50;;;8.87;82.50
47883;BME280;37739;50.350;7.578;2023-04-25T00:11:19;99139.59;;;8.93;82.07
47883;BME280;37739;50.350;7.578;2023-04-25T00:13:47;99135.53;;;9.00;82.30
47883;BME280;37739;50.350;7.578;2023-04-25T00:16:14;99134.78;;;9.04;81.81
47883;BME280;37739;50.350;7.578;2023-04-25T00:18:42;99127.22;;;9.07;81.68
47883;BME280;37739;50.350;7.578;2023-04-25T00:21:08;99127.00;;;8.99;81.02
47883;BME280;37739;50.350;7.578;2023-04-25T00:23:35;99133.03;;;9.01;81.76
47883;BME280;37739;50.350;7.578;2023-04-25T00:26:02;99137.16;;;8.98;81.64
47883;BME280;37739;50.350;7.578;2023-04-25T00:28:27;99134.00;;;8.79;81.54
47883;BME280;37739;50.350;7.578;2023-04-25T00:30:52;99127.84;;;8.49;82.30
47883;BME280;37739;50.350;7.578;2023-04-25T00:33:18;99130.31;;;8.45;81.79
47883;BME280;37739;50.350;7.578;2023-04-25T00:35:48;99130.25;;;8.44;81.37
47883;BME280;37739;50.350;7.578;2023-04-25T00:38:18;99133.09;;;8.29;81.89
47883;BME280;37739;50.350;7.578;2023-04-25T00:40:43;99134.84;;;8.30;82.33
47883;BME280;37739;50.350;7.578;2023-04-25T00:43:09;99133.16;;;8.31;82.01
47883;BME280;37739;50.350;7.578;2023-04-25T00:45:38;99127.91;;;8.26;82.45
47883;BME280;37739;50.350;7.578;2023-04-25T00:48:08;99133.09;;;8.29;81.83
47883;BME280;37739;50.350;7.578;2023-04-25T00:50:34;99121.69;;;8.19;81.79
47883;BME280;37739;50.350;7.578;2023-04-25T00:53:00;99124.16;;;8.16;81.65
47883;BME280;37739;50.350;7.578;2023-04-25T00:55:31;99126.19;;;8.02;82.07
47883;BME280;37739;50.350;7.578;2023-04-25T00:57:57;99121.28;;;7.84;83.28
47883;BME280;37739;50.350;7.578;2023-04-25T01:00:22;99116.81;;;7.79;82.26
47883;BME280;37739;50.350;7.578;2023-04-25T01:02:50;99116.47;;;7.70;83.25
47883;BME280;37739;50.350;7.578;2023-04-25T01:05:15;99121.06;;;7.78;82.52
47883;BME280;37739;50.350;7.578;2023-04-25T01:07:41;99115.72;;;7.72;82.27
47883;BME280;37739;50.350;7.578;2023-04-25T01:10:07;99115.94;;;7.78;82.48
47883;BME280;37739;50.350;7.578;2023-04-25T01:12:35;99116.28;;;7.88;81.74
47883;BME280;37739;50.350;7.578;2023-04-25T01:15:00;99122.47;;;7.94;81.44
47883;BME280;37739;50.350;7.578;2023-04-25T01:17:28;99125.75;;;7.67;81.69
47883;BME280;37739;50.350;7.578;2023-04-25T01:19:54;99114.31;;;7.58;82.32
47883;BME280;37739;50.350;7.578;2023-04-25T01:22:21;99121.81;;;7.53;82.22
47883;BME280;37739;50.350;7.578;2023-04-25T01:24:47;99114.56;;;7.41;81.66
47883;BME280;37739;50.350;7.578;2023-04-25T01:27:13;99113.94;;;7.47;82.71
47883;BME280;37739;50.350;7.578;2023-04-25T01:29:39;99117.72;;;7.57;81.73
47883;BME280;37739;50.350;7.578;2023-04-25T01:32:05;99127.19;;;7.38;81.43
47883;BME280;37739;50.350;7.578;2023-04-25T01:34:31;99120.09;;;7.31;82.12
47883;BME280;37739;50.350;7.578;2023-04-25T01:36:59;99133.63;;;7.28;82.39
47883;BME280;37739;50.350;7.578;2023-04-25T01:39:24;99131.44;;;7.38;82.81
47883;BME280;37739;50.350;7.578;2023-04-25T01:41:52;99124.78;;;7.41;82.16
47883;BME280;37739;50.350;7.578;2023-04-25T01:44:20;99131.84;;;7.48;81.94
47883;BME280;37739;50.350;7.578;2023-04-25T01:46:50;99131.91;;;7.27;82.05
47883;BME280;37739;50.350;7.578;2023-04-25T01:49:15;99131.91;;;7.27;82.39
47883;BME280;37739;50.350;7.578;2023-04-25T01:51:41;99134.50;;;7.29;82.49
47883;BME280;37739;50.350;7.578;2023-04-25T01:54:12;99128.88;;;7.38;82.51
47883;BME280;37739;50.350;7.578;2023-04-25T01:56:38;99131.97;;;7.52;81.99
47883;BME280;37739;50.350;7.578;2023-04-25T01:59:04;99132.25;;;7.59;81.52
47883;BME280;37739;50.350;7.578;2023-04-25T02:01:30;99132.66;;;7.47;81.41
47883;BME280;37739;50.350;7.578;2023-04-25T02:03:58;99129.59;;;7.34;81.85
47883;BME280;37739;50.350;7.578;2023-04-25T02:06:23;99139.84;;;7.35;82.17
47883;BME280;37739;50.350;7.578;2023-04-25T02:08:51;99140.59;;;7.33;82.50
47883;BME280;37739;50.350;7.578;2023-04-25T02:11:16;99140.72;;;7.36;82.10
47883;BME280;37739;50.350;7.578;2023-04-25T02:13:44;99140.09;;;7.41;81.60
47883;BME280;37739;50.350;7.578;2023-04-25T02:16:09;99139.31;;;7.44;81.90
47883;BME280;37739;50.350;7.578;2023-04-25T02:18:37;99139.38;;;7.45;82.16
47883;BME280;37739;50.350;7.578;2023-04-25T02:21:02;99136.59;;;7.39;81.76
47883;BME280;37739;50.350;7.578;2023-04-25T02:23:28;99134.34;;;7.47;82.29
47883;BME280;37739;50.350;7.578;2023-04-25T02:25:58;99134.09;;;7.41;81.87
47883;BME280;37739;50.350;7.578;2023-04-25T02:28:29;99134.38;;;7.48;82.59
47883;BME280;37739;50.350;7.578;2023-04-25T02:30:55;99139.97;;;7.61;82.20
47883;BME280;37739;50.350;7.578;2023-04-25T02:33:20;99140.84;;;7.61;82.01
47883;BME280;37739;50.350;7.578;2023-04-25T02:35:48;99138.91;;;7.56;81.84
47883;BME280;37739;50.350;7.578;2023-04-25T02:38:18;99139.75;;;7.55;82.61
47883;BME280;37739;50.350;7.578;2023-04-25T02:40:43;99134.75;;;7.58;82.28
47883;BME280;37739;50.350;7.578;2023-04-25T02:43:13;99135.50;;;7.55;81.98
47883;BME280;37739;50.350;7.578;2023-04-25T02:45:38;99145.03;;;7.59;82.08
47883;BME280;37739;50.350;7.578;2023-04-25T02:48:06;99144.16;;;7.59;82.34
47883;BME280;37739;50.350;7.578;2023-04-25T02:50:32;99147.44;;;7.56;82.27
47883;BME280;37739;50.350;7.578;2023-04-25T02:52:57;99146.50;;;7.54;82.13
47883;BME280;37739;50.350;7.578;2023-04-25T02:55:25;99140.69;;;7.57;81.86
47883;BME280;37739;50.350;7.578;2023-04-25T02:57:53;99145.94;;;7.61;81.64
47883;BME280;37739;50.350;7.578;2023-04-25T03:00:22;99157.03;;;7.62;82.01
47883;BME280;37739;50.350;7.578;2023-04-25T03:02:50;99152.81;;;7.62;82.21
47883;BME280;37739;50.350;7.578;2023-04-25T03:05:18;99157.09;;;7.63;81.76
47883;BME280;37739;50.350;7.578;2023-04-25T03:07:44;99156.16;;;7.61;81.69
47883;BME280;37739;50.350;7.578;2023-04-25T03:10:12;99158.72;;;7.61;81.88
47883;BME280;37739;50.350;7.578;2023-04-25T03:12:37;99158.66;;;7.60;82.40
47883;BME280;37739;50.350;7.578;2023-04-25T03:15:03;99153.75;;;7.64;82.18
47883;BME280;37739;50.350;7.578;2023-04-25T03:17:30;99164.03;;;7.67;82.32
47883;BME280;37739;50.350;7.578;2023-04-25T03:20:00;99166.59;;;7.67;82.50
47883;BME280;37739;50.350;7.578;2023-04-25T03:22:26;99167.50;;;7.68;82.56
47883;BME280;37739;50.350;7.578;2023-04-25T03:24:51;99168.41;;;7.70;82.40
47883;BME280;37739;50.350;7.578;2023-04-25T03:27:17;99170.03;;;7.68;82.52
47883;BME280;37739;50.350;7.578;2023-04-25T03:29:42;99170.06;;;7.70;82.32
47883;BME280;37739;50.350;7.578;2023-04-25T03:32:10;99171.00;;;7.72;82.23
47883;BME280;37739;50.350;7.578;2023-04-25T03:34:36;99166.84;;;7.74;81.87
47883;BME280;37739;50.350;7.578;2023-04-25T03:37:01;99163.31;;;7.70;82.14
47883;BME280;37739;50.350;7.578;2023-04-25T03:39:26;99162.31;;;7.66;82.56
47883;BME280;37739;50.350;7.578;2023-04-25T03:41:55;99164.03;;;7.67;82.86
47883;BME280;37739;50.350;7.578;2023-04-25T03:44:20;99163.03;;;7.62;83.04
47883;BME280;37739;50.350;7.578;2023-04-25T03:46:45;99157.63;;;7.55;83.17
47883;BME280;37739;50.350;7.578;2023-04-25T03:49:10;99157.66;;;7.56;83.26
47883;BME280;37739;50.350;7.578;2023-04-25T03:51:38;99164.66;;;7.60;82.92
47883;BME280;37739;50.350;7.578;2023-04-25T03:54:03;99165.44;;;7.59;82.89
47883;BME280;37739;50.350;7.578;2023-04-25T03:56:31;99167.88;;;7.56;82.17
47883;BME280;37739;50.350;7.578;2023-04-25T03:58:59;99178.06;;;7.56;82.30
47883;BME280;37739;50.350;7.578;2023-04-25T04:01:26;99176.41;;;7.57;82.17
47883;BME280;37739;50.350;7.578;2023-04-25T04:03:54;99180.47;;;7.52;82.23
47883;BME280;37739;50.350;7.578;2023-04-25T04:06:21;99172.03;;;7.54;82.39
47883;BME280;37739;50.350;7.578;2023-04-25T04:08:47;99173.97;;;7.60;81.74
47883;BME280;37739;50.350;7.578;2023-04-25T04:11:12;99185.94;;;7.61;81.51
47883;BME280;37739;50.350;7.578;2023-04-25T04:13:37;99186.41;;;7.51;81.10
47883;BME280;37739;50.350;7.578;2023-04-25T04:16:03;99188.13;;;7.31;82.20
47883;BME280;37739;50.350;7.578;2023-04-25T04:18:29;99183.56;;;7.22;82.42
47883;BME280;37739;50.350;7.578;2023-04-25T04:20:54;99180.69;;;7.14;81.98
47883;BME280;37739;50.350;7.578;2023-04-25T04:23:25;99188.06;;;7.08;81.97
47883;BME280;37739;50.350;7.578;2023-04-25T04:25:54;99191.13;;;6.99;82.11
47883;BME280;37739;50.350;7.578;2023-04-25T04:28:20;99185.50;;;6.87;82.81
47883;BME280;37739;50.350;7.578;2023-04-25T04:30:46;99182.28;;;6.91;82.78
47883;BME280;37739;50.350;7.578;2023-04-25T04:33:12;99179.75;;;6.91;82.79
47883;BME280;37739;50.350;7.578;2023-04-25T04:35:38;99187.03;;;7.03;82.70
47883;BME280;37739;50.350;7.578;2023-04-25T04:38:03;99186.28;;;7.05;82.55
47883;BME280;37739;50.350;7.578;2023-04-25T04:40:31;99188.81;;;7.05;82.54
47883;BME280;37739;50.350;7.578;2023-04-25T04:42:57;99188.19;;;7.11;82.32
47883;BME280;37739;50.350;7.578;2023-04-25T04:45:24;99194.00;;;7.07;81.70
47883;BME280;37739;50.350;7.578;2023-04-25T04:47:50;99198.84;;;7.01;82.72
47883;BME280;37739;50.350;7.578;2023-04-25T04:50:18;99195.91;;;6.92;81.93
47883;BME280;37739;50.350;7.578;2023-04-25T04:52:45;99199.38;;;6.94;82.27
47883;BME280;37739;50.350;7.578;2023-04-25T04:55:11;99204.13;;;7.05;82.26
47883;BME280;37739;50.350;7.578;2023-04-25T04:57:36;99205.97;;;6.88;82.50
47883;BME280;37739;50.350;7.578;2023-04-25T05:00:07;99208.75;;;6.95;82.53
47883;BME280;37739;50.350;7.578;2023-04-25T05:02:37;99207.75;;;7.11;81.67
47883;BME280;37739;50.350;7.578;2023-04-25T05:05:04;99221.50;;;7.14;81.50
47883;BME280;37739;50.350;7.578;2023-04-25T05:07:32;99215.00;;;7.01;82.11
47883;BME280;37739;50.350;7.578;2023-04-25T05:09:57;99209.44;;;6.91;82.14
47883;BME280;37739;50.350;7.578;2023-04-25T05:12:23;99218.53;;;6.84;82.17
47883;BME280;37739;50.350;7.578;2023-04-25T05:14:51;99214.97;;;6.80;82.85
47883;BME280;37739;50.350;7.578;2023-04-25T05:17:19;99221.72;;;6.99;82.37
47883;BME280;37739;50.350;7.578;2023-04-25T05:19:47;99216.41;;;6.95;82.01
47883;BME280;37739;50.350;7.578;2023-04-25T05:22:12;99219.72;;;6.92;81.89
47883;BME280;37739;50.350;7.578;2023-04-25T05:24:37;99227.19;;;6.87;82.24
47883;BME280;37739;50.350;7.578;2023-04-25T05:27:05;99229.00;;;6.71;82.47
47883;BME280;37739;50.350;7.578;2023-04-25T05:29:30;99231.22;;;6.63;83.18
47883;BME280;37739;50.350;7.578;2023-04-25T05:31:58;99228.75;;;6.64;83.38
47883;BME280;37739;50.350;7.578;2023-04-25T05:34:26;99228.06;;;6.68;82.74
47883;BME280;37739;50.350;7.578;2023-04-25T05:36:51;99231.22;;;6.63;82.92
47883;BME280;37739;50.350;7.578;2023-04-25T05:39:19;99235.47;;;6.62;83.18
47883;BME280;37739;50.350;7.578;2023-04-25T05:41:46;99242.75;;;6.74;83.39
47883;BME280;37739;50.350;7.578;2023-04-25T05:44:12;99238.19;;;6.86;82.38
47883;BME280;37739;50.350;7.578;2023-04-25T05:46:40;99239.03;;;6.87;82.86
47883;BME280;37739;50.350;7.578;2023-04-25T05:49:06;99247.78;;;6.92;81.89
47883;BME280;37739;50.350;7.578;2023-04-25T05:51:32;99259.66;;;6.92;82.17
47883;BME280;37739;50.350;7.578;2023-04-25T05:53:57;99243.31;;;7.07;81.38
47883;BME280;37739;50.350;7.578;2023-04-25T05:56:22;99256.06;;;7.07;81.70
47883;BME280;37739;50.350;7.578;2023-04-25T05:58:53;99257.00;;;7.10;81.32
47883;BME280;37739;50.350;7.578;2023-04-25T06:01:18;99260.56;;;7.13;81.15
47883;BME280;37739;50.350;7.578;2023-04-25T06:03:46;99263.44;;;7.21;81.39
47883;BME280;37739;50.350;7.578;2023-04-25T06:06:14;99264.81;;;7.13;81.19
47883;BME280;37739;50.350;7.578;2023-04-25T06:08:40;99262.44;;;7.17;81.75
47883;BME280;37739;50.350;7.578;2023-04-25T06:11:05;99262.34;;;7.16;81.08
47883;BME280;37739;50.350;7.578;2023-04-25T06:13:31;99267.91;;;7.26;81.53
47883;BME280;37739;50.350;7.578;2023-04-25T06:15:56;99269.28;;;7.18;80.00
47883;BME280;37739;50.350;7.578;2023-04-25T06:18:24;99268.03;;;7.08;80.45
47883;BME280;37739;50.350;7.578;2023-04-25T06:20:49;99264.66;;;7.10;81.20
47883;BME280;37739;50.350;7.578;2023-04-25T06:23:17;99265.47;;;7.08;80.66
47883;BME280;37739;50.350;7.578;2023-04-25T06:25:47;99268.38;;;7.18;80.69
47883;BME280;37739;50.350;7.578;2023-04-25T06:28:13;99270.63;;;7.10;80.69
47883;BME280;37739;50.350;7.578;2023-04-25T06:30:38;99279.09;;;7.09;81.07
47883;BME280;37739;50.350;7.578;2023-04-25T06:33:03;99280.91;;;7.12;80.75
47883;BME280;37739;50.350;7.578;2023-04-25T06:35:31;99281.91;;;7.15;80.75
47883;BME280;37739;50.350;7.578;2023-04-25T06:37:56;99282.03;;;7.18;80.70
47883;BME280;37739;50.350;7.578;2023-04-25T06:40:22;99282.31;;;7.05;80.30
47883;BME280;37739;50.350;7.578;2023-04-25T06:42:47;99294.97;;;7.23;80.58
47883;BME280;37739;50.350;7.578;2023-04-25T06:45:12;99286.41;;;7.42;80.26
47883;BME280;37739;50.350;7.578;2023-04-25T06:47:40;99286.47;;;7.43;79.89
47883;BME280;37739;50.350;7.578;2023-04-25T06:50:08;99295.19;;;7.27;79.19
47883;BME280;37739;50.350;7.578;2023-04-25T06:52:34;99288.88;;;7.19;78.89
47883;BME280;37739;50.350;7.578;2023-04-25T06:55:01;99291.56;;;7.22;78.96
47883;BME280;37739;50.350;7.578;2023-04-25T06:57:27;99291.06;;;7.31;78.97
47883;BME280;37739;50.350;7.578;2023-04-25T06:59:55;99287.72;;;7.32;78.93
47883;BME280;37739;50.350;7.578;2023-04-25T07:02:23;99296.56;;;7.40;79.27
47883;BME280;37739;50.350;7.578;2023-04-25T07:04:48;99296.94;;;7.50;79.02
47883;BME280;37739;50.350;7.578;2023-04-25T07:07:14;99305.06;;;7.41;77.34
47883;BME280;37739;50.350;7.578;2023-04-25T07:09:39;99308.16;;;7.53;77.78
47883;BME280;37739;50.350;7.578;2023-04-25T07:12:05;99316.09;;;7.40;77.09
47883;BME280;37739;50.350;7.578;2023-04-25T07:14:32;99307.06;;;7.48;77.73
47883;BME280;37739;50.350;7.578;2023-04-25T07:16:58;99314.34;;;7.39;78.64
47883;BME280;37739;50.350;7.578;2023-04-25T07:19:28;99307.22;;;7.51;79.34
47883;BME280;37739;50.350;7.578;2023-04-25T07:21:55;99312.31;;;7.51;79.63
47883;BME280;37739;50.350;7.578;2023-04-25T07:24:20;99314.97;;;7.33;79.71
47883;BME280;37739;50.350;7.578;2023-04-25T07:26:45;99312.94;;;7.45;81.15
47883;BME280;37739;50.350;7.578;2023-04-25T07:29:13;99320.13;;;7.35;80.54
47883;BME280;37739;50.350;7.578;2023-04-25T07:31:41;99314.72;;;7.27;81.62
47883;BME280;37739;50.350;7.578;2023-04-25T07:34:06;99318.19;;;7.29;82.05
47883;BME280;37739;50.350;7.578;2023-04-25T07:36:34;99313.69;;;7.23;81.92
47883;BME280;37739;50.350;7.578;2023-04-25T07:39:00;99315.84;;;7.34;83.07
47883;BME280;37739;50.350;7.578;2023-04-25T07:41:28;99322.84;;;7.59;82.58
47883;BME280;37739;50.350;7.578;2023-04-25T07:43:53;99320.41;;;7.83;82.33
47883;BME280;37739;50.350;7.578;2023-04-25T07:46:21;99314.75;;;7.90;81.36
47883;BME280;37739;50.350;7.578;2023-04-25T07:48:46;99321.59;;;7.91;79.67
47883;BME280;37739;50.350;7.578;2023-04-25T07:51:16;99326.66;;;7.90;78.31
47883;BME280;37739;50.350;7.578;2023-04-25T07:53:45;99324.34;;;7.75;77.94
47883;BME280;37739;50.350;7.578;2023-04-25T07:56:12;99330.38;;;7.77;78.66
47883;BME280;37739;50.350;7.578;2023-04-25T07:58:40;99339.66;;;7.75;78.63
47883;BME280;37739;50.350;7.578;2023-04-25T08:01:05;99339.84;;;7.79;77.77
47883;BME280;37739;50.350;7.578;2023-04-25T08:03:31;99344.69;;;7.73;77.75
47883;BME280;37739;50.350;7.578;2023-04-25T08:05:56;99350.13;;;7.81;78.36
47883;BME280;37739;50.350;7.578;2023-04-25T08:08:21;99348.78;;;7.89;78.03
47883;BME280;37739;50.350;7.578;2023-04-25T08:10:49;99354.75;;;7.90;77.48
47883;BME280;37739;50.350;7.578;2023-04-25T08:13:14;99356.47;;;7.70;77.58
47883;BME280;37739;50.350;7.578;2023-04-25T08:15:42;99358.16;;;7.69;77.19
47883;BME280;37739;50.350;7.578;2023-04-25T08:18:07;99358.47;;;7.77;76.82
47883;BME280;37739;50.350;7.578;2023-04-25T08:20:33;99364.81;;;7.65;74.95
47883;BME280;37739;50.350;7.578;2023-04-25T08:23:03;99364.56;;;7.59;75.03
47883;BME280;37739;50.350;7.578;2023-04-25T08:25:33;99371.53;;;7.63;75.35
47883;BME280;37739;50.350;7.578;2023-04-25T08:28:00;99374.56;;;7.95;76.55
47883;BME280;37739;50.350;7.578;2023-04-25T08:30:28;99371.75;;;8.33;74.86
47883;BME280;37739;50.350;7.578;2023-04-25T08:32:58;99373.53;;;8.56;74.85
47883;BME280;37739;50.350;7.578;2023-04-25T08:35:23;99375.00;;;8.72;73.24
47883;BME280;37739;50.350;7.578;2023-04-25T08:37:49;99373.19;;;8.92;72.07
47883;BME280;37739;50.350;7.578;2023-04-25T08:40:15;99377.16;;;8.84;72.31
47883;BME280;37739;50.350;7.578;2023-04-25T08:42:41;99375.94;;;8.97;73.46
47883;BME280;37739;50.350;7.578;2023-04-25T08:45:10;99383.81;;;9.03;73.80
47883;BME280;37739;50.350;7.578;2023-04-25T08:47:38;99374.16;;;8.96;70.38
47883;BME280;37739;50.350;7.578;2023-04-25T08:50:05;99383.91;;;8.82;70.43
47883;BME280;37739;50.350;7.578;2023-04-25T08:52:40;99389.09;;;8.83;69.81
47883;BME280;37739;50.350;7.578;2023-04-25T08:55:09;99394.22;;;8.85;70.15
47883;BME280;37739;50.350;7.578;2023-04-25T08:57:36;99406.41;;;8.68;68.95
47883;BME280;37739;50.350;7.578;2023-04-25T09:00:02;99408.84;;;8.65;69.77
47883;BME280;37739;50.350;7.578;2023-04-25T09:02:30;99415.97;;;8.51;68.24
47883;BME280;37739;50.350;7.578;2023-04-25T09:04:59;99418.16;;;8.42;69.66
47883;BME280;37739;50.350;7.578;2023-04-25T09:07:29;99427.19;;;8.55;70.10
47883;BME280;37739;50.350;7.578;2023-04-25T09:09:57;99431.38;;;8.75;70.42
47883;BME280;37739;50.350;7.578;2023-04-25T09:12:24;99434.53;;;8.68;68.64
47883;BME280;37739;50.350;7.578;2023-04-25T09:15:07;99439.72;;;8.49;68.56
47883;BME280;37739;50.350;7.578;2023-04-25T09:17:33;99437.75;;;8.41;68.32
47883;BME280;37739;50.350;7.578;2023-04-25T09:20:16;99436.59;;;8.35;68.69
47883;BME280;37739;50.350;7.578;2023-04-25T09:22:45;99445.25;;;8.38;69.83
47883;BME280;37739;50.350;7.578;2023-04-25T09:25:11;99443.94;;;8.27;68.52
47883;BME280;37739;50.350;7.578;2023-04-25T09:27:52;99450.25;;;8.14;66.48
47883;BME280;37739;50.350;7.578;2023-04-25T09:30:18;99452.00;;;8.15;65.97
47883;BME280;37739;50.350;7.578;2023-04-25T09:32:56;99448.75;;;8.19;67.53
47883;BME280;37739;50.350;7.578;2023-04-25T09:35:28;99453.44;;;8.09;66.47
47883;BME280;37739;50.350;7.578;2023-04-25T09:37:53;99457.53;;;8.05;66.30
47883;BME280;37739;50.350;7.578;2023-04-25T09:40:19;99461.50;;;7.98;66.83
47883;BME280;37739;50.350;7.578;2023-04-25T09:42:44;99468.56;;;8.04;67.71
47883;BME280;37739;50.350;7.578;2023-04-25T09:45:12;99473.97;;;7.91;66.15
47883;BME280;37739;50.350;7.578;2023-04-25T09:47:38;99468.13;;;7.93;66.66
47883;BME280;37739;50.350;7.578;2023-04-25T09:50:14;99476.03;;;7.99;66.14
47883;BME280;37739;50.350;7.578;2023-04-25T09:52:40;99477.91;;;8.03;65.84
47883;BME280;37739;50.350;7.578;2023-04-25T09:55:08;99477.53;;;8.15;66.71
47883;BME280;37739;50.350;7.578;2023-04-25T09:57:35;99477.84;;;8.23;66.58
47883;BME280;37739;50.350;7.578;2023-04-25T10:00:05;99480.94;;;8.35;66.51
47883;BME280;37739;50.350;7.578;2023-04-25T10:02:37;99485.97;;;8.34;66.20
47883;BME280;37739;50.350;7.578;2023-04-25T10:05:05;99486.56;;;8.48;66.44
47883;BME280;37739;50.350;7.578;2023-04-25T10:07:35;99492.06;;;8.57;66.26
47883;BME280;37739;50.350;7.578;2023-04-25T10:10:04;99474.09;;;8.55;65.09
47883;BME280;37739;50.350;7.578;2023-04-25T10:12:35;99488.63;;;8.79;65.50
47883;BME280;37739;50.350;7.578;2023-04-25T10:15:02;99481.41;;;8.90;64.64
47883;BME280;37739;50.350;7.578;2023-04-25T10:17:28;99480.75;;;8.95;62.25
47883;BME280;37739;50.350;7.578;2023-04-25T10:19:57;99493.47;;;8.94;61.81
47883;BME280;37739;50.350;7.578;2023-04-25T10:22:34;99475.84;;;8.79;60.35
47883;BME280;37739;50.350;7.578;2023-04-25T10:25:01;99494.13;;;8.88;60.42
47883;BME280;37739;50.350;7.578;2023-04-25T10:27:29;99492.56;;;8.92;59.31
47883;BME280;37739;50.350;7.578;2023-04-25T10:32:31;99485.19;;;8.99;59.34
47883;BME280;37739;50.350;7.578;2023-04-25T10:34:57;99488.03;;;9.07;57.87
47883;BME280;37739;50.350;7.578;2023-04-25T10:37:27;99496.28;;;9.22;57.98
47883;BME280;37739;50.350;7.578;2023-04-25T10:39:57;99499.50;;;9.41;57.09
47883;BME280;37739;50.350;7.578;2023-04-25T10:42:22;99496.00;;;9.61;57.21
47883;BME280;37739;50.350;7.578;2023-04-25T10:45:08;99500.94;;;9.81;56.36
47883;BME280;37739;50.350;7.578;2023-04-25T10:47:43;99504.16;;;9.75;56.15
47883;BME280;37739;50.350;7.578;2023-04-25T10:50:09;99508.34;;;9.73;55.88
47883;BME280;37739;50.350;7.578;2023-04-25T10:52:35;99513.53;;;9.75;54.92
47883;BME280;37739;50.350;7.578;2023-04-25T10:55:03;99506.84;;;9.78;54.78
47883;BME280;37739;50.350;7.578;2023-04-25T10:57:43;99518.50;;;9.70;53.31
47883;BME280;37739;50.350;7.578;2023-04-25T11:00:17;99521.75;;;9.42;52.24
47883;BME280;37739;50.350;7.578;2023-04-25T11:02:51;99525.00;;;9.38;52.71
47883;BME280;37739;50.350;7.578;2023-04-25T11:05:24;99530.03;;;9.12;53.30
47883;BME280;37739;50.350;7.578;2023-04-25T11:07:53;99533.38;;;9.11;52.83
47883;BME280;37739;50.350;7.578;2023-04-25T11:10:30;99534.78;;;9.03;54.49
47883;BME280;37739;50.350;7.578;2023-04-25T11:12:59;99540.50;;;9.18;54.90
47883;BME280;37739;50.350;7.578;2023-04-25T11:15:27;99538.28;;;9.28;54.94
47883;BME280;37739;50.350;7.578;2023-04-25T11:17:55;99546.94;;;9.31;54.80
47883;BME280;37739;50.350;7.578;2023-04-25T11:20:21;99542.16;;;9.18;55.30
47883;BME280;37739;50.350;7.578;2023-04-25T11:22:50;99539.78;;;9.22;55.06
47883;BME280;37739;50.350;7.578;2023-04-25T11:25:19;99539.78;;;9.45;55.32
47883;BME280;37739;50.350;7.578;2023-04-25T11:27:52;99535.81;;;9.53;54.91
47883;BME280;37739;50.350;7.578;2023-04-25T11:30:19;99537.38;;;9.72;55.71
47883;BME280;37739;50.350;7.578;2023-04-25T11:32:45;99535.66;;;9.73;54.41
47883;BME280;37739;50.350;7.578;2023-04-25T11:35:11;99535.22;;;9.85;54.92
47883;BME280;37739;50.350;7.578;2023-04-25T11:37:40;99528.28;;;10.06;55.26
47883;BME280;37739;50.350;7.578;2023-04-25T11:40:06;99524.03;;;10.31;54.87
47883;BME280;37739;50.350;7.578;2023-04-25T11:42:32;99515.75;;;10.38;53.28
47883;BME280;37739;50.350;7.578;2023-04-25T11:45:03;99520.53;;;10.81;52.05
47883;BME280;37739;50.350;7.578;2023-04-25T11:47:31;99526.50;;;10.80;52.92
47883;BME280;37739;50.350;7.578;2023-04-25T11:50:04;99525.22;;;10.40;52.28
47883;BME280;37739;50.350;7.578;2023-04-25T11:52:43;99525.50;;;10.24;52.48
47883;BME280;37739;50.350;7.578;2023-04-25T11:55:16;99523.63;;;10.44;52.89
47883;BME280;37739;50.350;7.578;2023-04-25T11:57:45;99520.03;;;10.65;51.88
47883;BME280;37739;50.350;7.578;2023-04-25T12:00:19;99527.31;;;10.52;51.69
47883;BME280;37739;50.350;7.578;2023-04-25T12:02:55;99530.16;;;10.34;51.49
47883;BME280;37739;50.350;7.578;2023-04-25T12:05:27;99539.53;;;10.59;50.82
47883;BME280;37739;50.350;7.578;2023-04-25T12:07:52;99536.78;;;10.80;49.48
47883;BME280;37739;50.350;7.578;2023-04-25T12:10:21;99542.13;;;11.15;49.19
47883;BME280;37739;50.350;7.578;2023-04-25T12:12:47;99541.22;;;12.03;48.79
47883;BME280;37739;50.350;7.578;2023-04-25T12:15:15;99532.25;;;12.53;46.64
47883;BME280;37739;50.350;7.578;2023-04-25T12:17:42;99538.72;;;12.72;45.47
47883;BME280;37739;50.350;7.578;2023-04-25T12:20:15;99538.50;;;12.63;44.31
47883;BME280;37739;50.350;7.578;2023-04-25T12:22:45;99540.72;;;12.16;44.61
47883;BME280;37739;50.350;7.578;2023-04-25T12:25:38;99544.41;;;11.35;46.75
47883;BME280;37739;50.350;7.578;2023-04-25T12:30:58;99543.19;;;10.95;46.55
47883;BME280;37739;50.350;7.578;2023-04-25T12:35:56;99551.78;;;10.95;48.67
47883;BME280;37739;50.350;7.578;2023-04-25T12:38:27;99557.81;;;11.25;48.50
47883;BME280;37739;50.350;7.578;2023-04-25T12:40:53;99554.78;;;11.38;48.42
47883;BME280;37739;50.350;7.578;2023-04-25T12:43:18;99552.91;;;11.32;47.36
47883;BME280;37739;50.350;7.578;2023-04-25T12:45:50;99549.66;;;11.38;47.41
47883;BME280;37739;50.350;7.578;2023-04-25T12:48:17;99551.19;;;11.62;46.65
47883;BME280;37739;50.350;7.578;2023-04-25T12:50:47;99546.16;;;12.27;45.83
47883;BME280;37739;50.350;7.578;2023-04-25T12:53:19;99552.22;;;12.64;46.08
47883;BME280;37739;50.350;7.578;2023-04-25T12:55:48;99548.03;;;12.67;43.66
47883;BME280;37739;50.350;7.578;2023-04-25T12:58:18;99549.56;;;12.95;42.29
47883;BME280;37739;50.350;7.578;2023-04-25T13:00:48;99554.16;;;13.47;42.48
47883;BME280;37739;50.350;7.578;2023-04-25T13:03:14;99555.53;;;13.31;42.13
47883;BME280;37739;50.350;7.578;2023-04-25T13:05:42;99563.78;;;12.46;44.70
47883;BME280;37739;50.350;7.578;2023-04-25T13:08:07;99574.72;;;11.75;44.83
47883;BME280;37739;50.350;7.578;2023-04-25T13:10:33;99584.53;;;11.31;44.91
47883;BME280;37739;50.350;7.578;2023-04-25T13:13:04;99582.53;;;11.21;46.06
47883;BME280;37739;50.350;7.578;2023-04-25T13:15:32;99583.81;;;11.07;46.58
47883;BME280;37739;50.350;7.578;2023-04-25T13:18:03;99588.63;;;10.70;46.72
47883;BME280;37739;50.350;7.578;2023-04-25T13:20:31;99584.66;;;10.54;47.54